sensor_id;sensor_type;location;lat;lon;timestamp;temperature;humidity
37528;DHT22;23372;52.050;4.810;2023-06-22T00:00:55;17.80;99.90
37528;DHT22;23372;52.050;4.810;2023-06-22T00:03:23;17.80;99.90
37528;DHT22;23372;52.050;4.810;2023-06-22T00:05:49;17.80;99.90
37528;DHT22;23372;52.050;4.810;2023-06-22T00:08:16;17.70;99.90
37528;DHT22;23372;52.050;4.810;2023-06-22T00:10:42;17.80;99.90
37528;DHT22;23372;52.050;4.810;2023-06-22T00:13:09;17.70;99.90
37528;DHT22;23372;52.050;4.810;2023-06-22T00:15:37;17.70;99.90
37528;DHT22;23372;52.050;4.810;2023-06-22T00:18:04;17.70;99.90
37528;DHT22;23372;52.050;4.810;2023-06-22T00:20:30;17.70;99.90
37528;DHT22;23372;52.050;4.810;2023-06-22T00:22:57;17.60;99.90
37528;DHT22;23372;52.050;4.810;2023-06-22T00:25:23;17.70;99.90
37528;DHT22;23372;52.050;4.810;2023-06-22T00:27:49;17.50;99.90
37528;DHT22;23372;52.050;4.810;2023-06-22T00:30:19;17.50;99.90
37528;DHT22;23372;52.050;4.810;2023-06-22T00:32:45;17.60;99.90
37528;DHT22;23372;52.050;4.810;2023-06-22T00:35:14;17.60;99.90
37528;DHT22;23372;52.050;4.810;2023-06-22T00:37:40;17.50;99.90
37528;DHT22;23372;52.050;4.810;2023-06-22T00:40:09;17.60;99.90
37528;DHT22;23372;52.050;4.810;2023-06-22T00:42:37;17.60;99.90
37528;DHT22;23372;52.050;4.810;2023-06-22T00:45:03;17.60;99.90
37528;DHT22;23372;52.050;4.810;2023-06-22T00:47:29;17.60;99.90
37528;DHT22;23372;52.050;4.810;2023-06-22T00:49:55;17.50;99.90
37528;DHT22;23372;52.050;4.810;2023-06-22T00:52:22;17.50;99.90
37528;DHT22;23372;52.050;4.810;2023-06-22T00:54:52;17.50;99.90
37528;DHT22;23372;52.050;4.810;2023-06-22T00:57:19;17.50;99.90
37528;DHT22;23372;52.050;4.810;2023-06-22T00:59:46;17.60;99.90
37528;DHT22;23372;52.050;4.810;2023-06-22T01:02:13;17.60;99.90
37528;DHT22;23372;52.050;4.810;2023-06-22T01:04:39;17.60;99.90
37528;DHT22;23372;52.050;4.810;2023-06-22T01:07:38;17.60;99.90
37528;DHT22;23372;52.050;4.810;2023-06-22T01:10:25;17.60;99.90
37528;DHT22;23372;52.050;4.810;2023-06-22T01:12:57;17.60;99.90
37528;DHT22;23372;52.050;4.810;2023-06-22T01:15:40;17.50;99.90
37528;DHT22;23372;52.050;4.810;2023-06-22T01:18:08;17.50;99.90
37528;DHT22;23372;52.050;4.810;2023-06-22T01:20:36;17.30;99.90
37528;DHT22;23372;52.050;4.810;2023-06-22T01:26:20;17.50;99.90
37528;DHT22;23372;52.050;4.810;2023-06-22T01:28:52;17.50;99.90
37528;DHT22;23372;52.050;4.810;2023-06-22T01:31:21;17.30;99.90
37528;DHT22;23372;52.050;4.810;2023-06-22T01:33:55;17.30;99.90
37528;DHT22;23372;52.050;4.810;2023-06-22T01:36:23;17.40;99.90
37528;DHT22;23372;52.050;4.810;2023-06-22T01:38:49;17.40;99.90
37528;DHT22;23372;52.050;4.810;2023-06-22T01:41:16;17.30;99.90
37528;DHT22;23372;52.050;4.810;2023-06-22T01:43:43;17.30;99.90
37528;DHT22;23372;52.050;4.810;2023-06-22T01:46:11;17.20;99.90
37528;DHT22;23372;52.050;4.810;2023-06-22T01:48:38;17.20;99.90
37528;DHT22;23372;52.050;4.810;2023-06-22T01:51:04;17.20;99.90
37528;DHT22;23372;52.050;4.810;2023-06-22T01:53:30;17.30;99.90
37528;DHT22;23372;52.050;4.810;2023-06-22T01:55:56;17.20;99.90
37528;DHT22;23372;52.050;4.810;2023-06-22T01:58:26;17.20;99.90
37528;DHT22;23372;52.050;4.810;2023-06-22T02:01:10;17.20;99.90
37528;DHT22;23372;52.050;4.810;2023-06-22T02:03:41;17.20;99.90
37528;DHT22;23372;52.050;4.810;2023-06-22T02:06:17;17.20;99.90
37528;DHT22;23372;52.050;4.810;2023-06-22T02:08:51;17.20;99.90
37528;DHT22;23372;52.050;4.810;2023-06-22T02:11:18;17.10;99.90
37528;DHT22;23372;52.050;4.810;2023-06-22T02:13:45;17.10;99.90
37528;DHT22;23372;52.050;4.810;2023-06-22T02:16:12;17.00;99.90
37528;DHT22;23372;52.050;4.810;2023-06-22T02:18:38;17.00;99.90
37528;DHT22;23372;52.050;4.810;2023-06-22T02:21:05;17.00;99.90
37528;DHT22;23372;52.050;4.810;2023-06-22T02:23:31;16.90;99.90
37528;DHT22;23372;52.050;4.810;2023-06-22T02:26:00;17.00;99.90
37528;DHT22;23372;52.050;4.810;2023-06-22T02:28:26;16.90;99.90
37528;DHT22;23372;52.050;4.810;2023-06-22T02:30:52;16.90;99.90
37528;DHT22;23372;52.050;4.810;2023-06-22T02:33:17;16.80;99.90
37528;DHT22;23372;52.050;4.810;2023-06-22T02:35:43;16.90;99.90
37528;DHT22;23372;52.050;4.810;2023-06-22T02:38:10;16.90;99.90
37528;DHT22;23372;52.050;4.810;2023-06-22T02:40:36;16.90;99.90
37528;DHT22;23372;52.050;4.810;2023-06-22T02:43:02;16.90;99.90
37528;DHT22;23372;52.050;4.810;2023-06-22T02:45:28;16.90;99.90
37528;DHT22;23372;52.050;4.810;2023-06-22T02:47:55;17.00;99.90
37528;DHT22;23372;52.050;4.810;2023-06-22T02:50:20;17.00;99.90
37528;DHT22;23372;52.050;4.810;2023-06-22T02:52:46;16.90;99.90
37528;DHT22;23372;52.050;4.810;2023-06-22T02:55:12;16.80;99.90
37528;DHT22;23372;52.050;4.810;2023-06-22T02:57:37;17.00;99.90
37528;DHT22;23372;52.050;4.810;2023-06-22T03:00:04;17.00;99.90
37528;DHT22;23372;52.050;4.810;2023-06-22T03:02:42;16.80;99.90
37528;DHT22;23372;52.050;4.810;2023-06-22T03:05:07;16.80;99.90
37528;DHT22;23372;52.050;4.810;2023-06-22T03:07:42;16.80;99.90
37528;DHT22;23372;52.050;4.810;2023-06-22T03:10:09;16.70;99.90
37528;DHT22;23372;52.050;4.810;2023-06-22T03:12:35;16.70;99.90
37528;DHT22;23372;52.050;4.810;2023-06-22T03:15:01;16.70;99.90
37528;DHT22;23372;52.050;4.810;2023-06-22T03:17:27;16.80;99.90
37528;DHT22;23372;52.050;4.810;2023-06-22T03:19:52;16.70;99.90
37528;DHT22;23372;52.050;4.810;2023-06-22T03:22:18;16.80;99.90
37528;DHT22;23372;52.050;4.810;2023-06-22T03:24:43;16.70;99.90
37528;DHT22;23372;52.050;4.810;2023-06-22T03:27:09;16.70;99.90
37528;DHT22;23372;52.050;4.810;2023-06-22T03:29:35;16.70;99.90
37528;DHT22;23372;52.050;4.810;2023-06-22T03:32:00;16.60;99.90
37528;DHT22;23372;52.050;4.810;2023-06-22T03:34:26;16.50;99.90
37528;DHT22;23372;52.050;4.810;2023-06-22T03:36:52;16.60;99.90
37528;DHT22;23372;52.050;4.810;2023-06-22T03:39:17;16.70;99.90
37528;DHT22;23372;52.050;4.810;2023-06-22T03:41:43;16.60;99.90
37528;DHT22;23372;52.050;4.810;2023-06-22T03:44:09;16.70;99.90
37528;DHT22;23372;52.050;4.810;2023-06-22T03:46:37;16.60;99.90
37528;DHT22;23372;52.050;4.810;2023-06-22T03:49:04;16.70;99.90
37528;DHT22;23372;52.050;4.810;2023-06-22T03:51:30;16.70;99.90
37528;DHT22;23372;52.050;4.810;2023-06-22T03:53:56;16.80;99.90
37528;DHT22;23372;52.050;4.810;2023-06-22T03:56:21;16.70;99.90
37528;DHT22;23372;52.050;4.810;2023-06-22T03:58:47;16.70;99.90
37528;DHT22;23372;52.050;4.810;2023-06-22T04:01:13;16.70;99.90
37528;DHT22;23372;52.050;4.810;2023-06-22T04:03:39;16.70;99.90
37528;DHT22;23372;52.050;4.810;2023-06-22T04:06:05;16.80;99.90
37528;DHT22;23372;52.050;4.810;2023-06-22T04:08:30;16.90;99.90
37528;DHT22;23372;52.050;4.810;2023-06-22T04:10:56;17.00;99.90
37528;DHT22;23372;52.050;4.810;2023-06-22T04:13:21;16.90;99.90
37528;DHT22;23372;52.050;4.810;2023-06-22T04:15:47;17.00;99.90
37528;DHT22;23372;52.050;4.810;2023-06-22T04:18:13;17.20;99.90
37528;DHT22;23372;52.050;4.810;2023-06-22T04:20:39;17.30;99.90
37528;DHT22;23372;52.050;4.810;2023-06-22T04:23:05;17.20;99.90
37528;DHT22;23372;52.050;4.810;2023-06-22T04:25:30;17.30;99.90
37528;DHT22;23372;52.050;4.810;2023-06-22T04:27:56;17.40;99.90
37528;DHT22;23372;52.050;4.810;2023-06-22T04:30:22;17.40;99.90
37528;DHT22;23372;52.050;4.810;2023-06-22T04:32:47;17.60;99.90
37528;DHT22;23372;52.050;4.810;2023-06-22T04:35:31;17.70;99.90
37528;DHT22;23372;52.050;4.810;2023-06-22T04:37:58;17.60;99.90
37528;DHT22;23372;52.050;4.810;2023-06-22T04:40:24;17.60;99.90
37528;DHT22;23372;52.050;4.810;2023-06-22T04:42:49;17.80;99.90
37528;DHT22;23372;52.050;4.810;2023-06-22T04:45:19;17.90;99.90
37528;DHT22;23372;52.050;4.810;2023-06-22T04:47:45;17.80;99.90
37528;DHT22;23372;52.050;4.810;2023-06-22T04:50:14;18.00;99.90
37528;DHT22;23372;52.050;4.810;2023-06-22T04:52:40;17.90;99.90
37528;DHT22;23372;52.050;4.810;2023-06-22T04:55:06;18.10;99.90
37528;DHT22;23372;52.050;4.810;2023-06-22T04:57:32;18.20;99.90
37528;DHT22;23372;52.050;4.810;2023-06-22T05:00:01;18.30;99.90
37528;DHT22;23372;52.050;4.810;2023-06-22T05:02:27;18.20;99.90
37528;DHT22;23372;52.050;4.810;2023-06-22T05:04:57;18.30;99.90
37528;DHT22;23372;52.050;4.810;2023-06-22T05:07:22;18.30;99.90
37528;DHT22;23372;52.050;4.810;2023-06-22T05:09:50;18.40;99.90
37528;DHT22;23372;52.050;4.810;2023-06-22T05:12:16;18.40;99.90
37528;DHT22;23372;52.050;4.810;2023-06-22T05:14:42;18.40;99.90
37528;DHT22;23372;52.050;4.810;2023-06-22T05:17:07;18.40;99.90
37528;DHT22;23372;52.050;4.810;2023-06-22T05:19:38;18.40;99.90
37528;DHT22;23372;52.050;4.810;2023-06-22T05:22:04;18.60;99.90
37528;DHT22;23372;52.050;4.810;2023-06-22T05:24:31;18.60;99.90
37528;DHT22;23372;52.050;4.810;2023-06-22T05:26:57;18.70;99.90
37528;DHT22;23372;52.050;4.810;2023-06-22T05:29:23;19.00;99.90
37528;DHT22;23372;52.050;4.810;2023-06-22T05:31:49;19.00;99.90
37528;DHT22;23372;52.050;4.810;2023-06-22T05:34:14;19.10;99.90
37528;DHT22;23372;52.050;4.810;2023-06-22T05:36:40;19.50;99.90
37528;DHT22;23372;52.050;4.810;2023-06-22T05:39:13;19.60;99.90
37528;DHT22;23372;52.050;4.810;2023-06-22T05:41:39;20.00;99.90
37528;DHT22;23372;52.050;4.810;2023-06-22T05:44:04;20.20;99.90
37528;DHT22;23372;52.050;4.810;2023-06-22T05:46:30;20.30;99.90
37528;DHT22;23372;52.050;4.810;2023-06-22T05:48:56;20.50;99.90
37528;DHT22;23372;52.050;4.810;2023-06-22T05:51:21;20.60;99.90
37528;DHT22;23372;52.050;4.810;2023-06-22T05:53:47;20.80;99.90
37528;DHT22;23372;52.050;4.810;2023-06-22T05:56:15;20.80;99.90
37528;DHT22;23372;52.050;4.810;2023-06-22T05:58:41;20.90;99.90
37528;DHT22;23372;52.050;4.810;2023-06-22T06:01:07;20.90;99.90
37528;DHT22;23372;52.050;4.810;2023-06-22T06:03:32;21.10;99.90
37528;DHT22;23372;52.050;4.810;2023-06-22T06:05:58;21.00;99.90
37528;DHT22;23372;52.050;4.810;2023-06-22T06:08:24;21.10;99.90
37528;DHT22;23372;52.050;4.810;2023-06-22T06:10:49;21.20;99.90
37528;DHT22;23372;52.050;4.810;2023-06-22T06:13:15;21.20;99.90
37528;DHT22;23372;52.050;4.810;2023-06-22T06:15:41;21.20;99.90
37528;DHT22;23372;52.050;4.810;2023-06-22T06:18:06;21.40;99.90
37528;DHT22;23372;52.050;4.810;2023-06-22T06:20:32;21.40;99.90
37528;DHT22;23372;52.050;4.810;2023-06-22T06:22:58;21.30;99.90
37528;DHT22;23372;52.050;4.810;2023-06-22T06:25:24;21.30;99.90
37528;DHT22;23372;52.050;4.810;2023-06-22T06:27:51;21.50;99.90
37528;DHT22;23372;52.050;4.810;2023-06-22T06:30:18;21.40;99.90
37528;DHT22;23372;52.050;4.810;2023-06-22T06:32:44;21.50;99.90
37528;DHT22;23372;52.050;4.810;2023-06-22T06:35:14;21.70;99.90
37528;DHT22;23372;52.050;4.810;2023-06-22T06:37:47;21.80;99.90
37528;DHT22;23372;52.050;4.810;2023-06-22T06:40:13;21.80;99.90
37528;DHT22;23372;52.050;4.810;2023-06-22T06:42:41;21.90;99.90
37528;DHT22;23372;52.050;4.810;2023-06-22T06:45:11;22.00;99.90
37528;DHT22;23372;52.050;4.810;2023-06-22T06:47:38;22.30;99.90
37528;DHT22;23372;52.050;4.810;2023-06-22T06:50:05;22.20;99.90
37528;DHT22;23372;52.050;4.810;2023-06-22T06:52:31;22.50;99.90
37528;DHT22;23372;52.050;4.810;2023-06-22T06:54:56;22.70;99.90
37528;DHT22;23372;52.050;4.810;2023-06-22T06:57:22;22.90;99.90
37528;DHT22;23372;52.050;4.810;2023-06-22T06:59:48;23.10;99.90
37528;DHT22;23372;52.050;4.810;2023-06-22T07:02:15;23.60;99.90
37528;DHT22;23372;52.050;4.810;2023-06-22T07:04:40;23.90;99.90
37528;DHT22;23372;52.050;4.810;2023-06-22T07:07:06;24.20;99.90
37528;DHT22;23372;52.050;4.810;2023-06-22T07:09:32;24.30;99.90
37528;DHT22;23372;52.050;4.810;2023-06-22T07:11:58;24.40;99.90
37528;DHT22;23372;52.050;4.810;2023-06-22T07:14:24;24.70;99.90
37528;DHT22;23372;52.050;4.810;2023-06-22T07:16:49;25.30;99.90
37528;DHT22;23372;52.050;4.810;2023-06-22T07:19:15;26.40;99.90
37528;DHT22;23372;52.050;4.810;2023-06-22T07:21:41;27.70;99.90
37528;DHT22;23372;52.050;4.810;2023-06-22T07:24:07;28.60;99.90
37528;DHT22;23372;52.050;4.810;2023-06-22T07:26:33;29.30;99.90
37528;DHT22;23372;52.050;4.810;2023-06-22T07:28:58;29.70;99.90
37528;DHT22;23372;52.050;4.810;2023-06-22T07:31:25;30.60;99.90
37528;DHT22;23372;52.050;4.810;2023-06-22T07:33:51;31.30;99.90
37528;DHT22;23372;52.050;4.810;2023-06-22T07:36:17;31.80;99.90
37528;DHT22;23372;52.050;4.810;2023-06-22T07:38:43;32.30;99.90
37528;DHT22;23372;52.050;4.810;2023-06-22T07:41:09;31.90;99.90
37528;DHT22;23372;52.050;4.810;2023-06-22T07:43:35;32.00;99.90
37528;DHT22;23372;52.050;4.810;2023-06-22T07:46:05;31.70;99.90
37528;DHT22;23372;52.050;4.810;2023-06-22T07:48:31;31.90;99.90
37528;DHT22;23372;52.050;4.810;2023-06-22T07:50:56;31.80;99.90
37528;DHT22;23372;52.050;4.810;2023-06-22T07:53:22;31.50;99.90
37528;DHT22;23372;52.050;4.810;2023-06-22T07:55:49;31.30;99.90
37528;DHT22;23372;52.050;4.810;2023-06-22T07:58:14;31.20;99.90
37528;DHT22;23372;52.050;4.810;2023-06-22T08:00:41;30.60;99.90
37528;DHT22;23372;52.050;4.810;2023-06-22T08:03:06;29.70;99.90
37528;DHT22;23372;52.050;4.810;2023-06-22T08:05:32;29.40;99.90
37528;DHT22;23372;52.050;4.810;2023-06-22T08:07:58;29.50;99.90
37528;DHT22;23372;52.050;4.810;2023-06-22T08:10:23;29.80;99.90
37528;DHT22;23372;52.050;4.810;2023-06-22T08:12:49;30.10;99.90
37528;DHT22;23372;52.050;4.810;2023-06-22T08:15:15;29.70;99.90
37528;DHT22;23372;52.050;4.810;2023-06-22T08:17:41;29.10;99.90
37528;DHT22;23372;52.050;4.810;2023-06-22T08:20:07;29.30;99.90
37528;DHT22;23372;52.050;4.810;2023-06-22T08:22:40;29.20;99.90
37528;DHT22;23372;52.050;4.810;2023-06-22T08:25:06;29.30;99.90
37528;DHT22;23372;52.050;4.810;2023-06-22T08:27:32;28.50;99.90
37528;DHT22;23372;52.050;4.810;2023-06-22T08:29:58;28.40;99.90
37528;DHT22;23372;52.050;4.810;2023-06-22T08:32:25;28.60;99.90
37528;DHT22;23372;52.050;4.810;2023-06-22T08:34:53;28.50;99.90
37528;DHT22;23372;52.050;4.810;2023-06-22T08:37:19;28.30;99.90
37528;DHT22;23372;52.050;4.810;2023-06-22T08:39:45;28.00;99.90
37528;DHT22;23372;52.050;4.810;2023-06-22T08:42:10;27.80;99.90
37528;DHT22;23372;52.050;4.810;2023-06-22T08:44:37;27.40;99.90
37528;DHT22;23372;52.050;4.810;2023-06-22T08:47:02;27.30;99.90
37528;DHT22;23372;52.050;4.810;2023-06-22T08:49:29;27.50;99.90
37528;DHT22;23372;52.050;4.810;2023-06-22T08:51:54;27.50;99.90
37528;DHT22;23372;52.050;4.810;2023-06-22T08:54:22;27.70;99.90
37528;DHT22;23372;52.050;4.810;2023-06-22T08:56:48;27.50;99.90
37528;DHT22;23372;52.050;4.810;2023-06-22T08:59:13;26.90;99.90
37528;DHT22;23372;52.050;4.810;2023-06-22T09:01:39;26.60;99.90
37528;DHT22;23372;52.050;4.810;2023-06-22T09:04:05;26.40;99.90
37528;DHT22;23372;52.050;4.810;2023-06-22T09:06:32;26.00;99.90
37528;DHT22;23372;52.050;4.810;2023-06-22T09:08:58;25.90;99.90
37528;DHT22;23372;52.050;4.810;2023-06-22T09:11:27;25.80;99.90
37528;DHT22;23372;52.050;4.810;2023-06-22T09:13:52;25.70;99.90
37528;DHT22;23372;52.050;4.810;2023-06-22T09:16:19;25.50;99.90
37528;DHT22;23372;52.050;4.810;2023-06-22T09:18:48;25.60;99.90
37528;DHT22;23372;52.050;4.810;2023-06-22T09:21:14;25.80;99.90
37528;DHT22;23372;52.050;4.810;2023-06-22T09:23:40;25.70;99.90
37528;DHT22;23372;52.050;4.810;2023-06-22T09:29:27;26.40;99.90
37528;DHT22;23372;52.050;4.810;2023-06-22T09:31:52;26.40;99.90
37528;DHT22;23372;52.050;4.810;2023-06-22T09:34:21;26.30;99.90
37528;DHT22;23372;52.050;4.810;2023-06-22T09:36:47;26.20;99.90
37528;DHT22;23372;52.050;4.810;2023-06-22T09:39:13;26.30;99.90
37528;DHT22;23372;52.050;4.810;2023-06-22T09:41:38;26.30;99.90
37528;DHT22;23372;52.050;4.810;2023-06-22T09:44:04;26.10;99.90
37528;DHT22;23372;52.050;4.810;2023-06-22T09:46:30;26.20;99.90
37528;DHT22;23372;52.050;4.810;2023-06-22T09:48:55;26.00;99.90
37528;DHT22;23372;52.050;4.810;2023-06-22T09:51:21;26.10;99.90
37528;DHT22;23372;52.050;4.810;2023-06-22T09:53:49;26.20;99.90
37528;DHT22;23372;52.050;4.810;2023-06-22T09:56:15;26.10;99.90
37528;DHT22;23372;52.050;4.810;2023-06-22T09:58:42;26.20;99.90
37528;DHT22;23372;52.050;4.810;2023-06-22T10:01:09;26.30;99.90
37528;DHT22;23372;52.050;4.810;2023-06-22T10:03:35;26.00;99.90
37528;DHT22;23372;52.050;4.810;2023-06-22T10:06:01;25.80;99.90
37528;DHT22;23372;52.050;4.810;2023-06-22T10:08:27;25.80;99.90
37528;DHT22;23372;52.050;4.810;2023-06-22T10:10:53;25.70;99.90
37528;DHT22;23372;52.050;4.810;2023-06-22T10:13:18;25.70;99.90
37528;DHT22;23372;52.050;4.810;2023-06-22T10:15:44;25.70;99.90
37528;DHT22;23372;52.050;4.810;2023-06-22T10:18:17;25.60;99.90
37528;DHT22;23372;52.050;4.810;2023-06-22T10:20:43;25.60;99.90
37528;DHT22;23372;52.050;4.810;2023-06-22T10:23:08;25.60;99.90
37528;DHT22;23372;52.050;4.810;2023-06-22T10:25:34;25.50;99.90
37528;DHT22;23372;52.050;4.810;2023-06-22T10:28:00;25.50;99.90
37528;DHT22;23372;52.050;4.810;2023-06-22T10:30:25;25.50;99.90
37528;DHT22;23372;52.050;4.810;2023-06-22T10:32:51;25.50;99.90
37528;DHT22;23372;52.050;4.810;2023-06-22T10:35:16;25.50;99.90
37528;DHT22;23372;52.050;4.810;2023-06-22T10:37:43;25.40;99.90
37528;DHT22;23372;52.050;4.810;2023-06-22T10:40:11;25.40;99.90
37528;DHT22;23372;52.050;4.810;2023-06-22T10:42:37;25.40;99.90
37528;DHT22;23372;52.050;4.810;2023-06-22T10:45:03;25.30;99.90
37528;DHT22;23372;52.050;4.810;2023-06-22T10:47:28;25.10;99.90
37528;DHT22;23372;52.050;4.810;2023-06-22T10:49:54;25.10;99.90
37528;DHT22;23372;52.050;4.810;2023-06-22T10:52:19;25.10;99.90
37528;DHT22;23372;52.050;4.810;2023-06-22T10:54:45;25.10;99.90
37528;DHT22;23372;52.050;4.810;2023-06-22T10:57:10;25.10;99.90
37528;DHT22;23372;52.050;4.810;2023-06-22T10:59:36;25.10;99.90
37528;DHT22;23372;52.050;4.810;2023-06-22T11:02:01;25.10;99.90
37528;DHT22;23372;52.050;4.810;2023-06-22T11:04:27;25.10;99.90
37528;DHT22;23372;52.050;4.810;2023-06-22T11:06:53;24.90;99.90
37528;DHT22;23372;52.050;4.810;2023-06-22T11:09:19;24.80;99.90
37528;DHT22;23372;52.050;4.810;2023-06-22T11:11:51;24.70;99.90
37528;DHT22;23372;52.050;4.810;2023-06-22T11:14:19;24.60;99.90
37528;DHT22;23372;52.050;4.810;2023-06-22T11:16:44;24.60;99.90
37528;DHT22;23372;52.050;4.810;2023-06-22T11:19:11;24.70;99.90
37528;DHT22;23372;52.050;4.810;2023-06-22T11:21:37;24.70;99.90
37528;DHT22;23372;52.050;4.810;2023-06-22T11:24:03;24.60;99.90
37528;DHT22;23372;52.050;4.810;2023-06-22T11:26:29;24.60;99.90
37528;DHT22;23372;52.050;4.810;2023-06-22T11:28:55;24.60;99.90
37528;DHT22;23372;52.050;4.810;2023-06-22T11:31:21;24.50;99.90
37528;DHT22;23372;52.050;4.810;2023-06-22T11:33:46;24.50;99.90
37528;DHT22;23372;52.050;4.810;2023-06-22T11:36:13;24.50;99.90
37528;DHT22;23372;52.050;4.810;2023-06-22T11:38:40;24.50;99.90
37528;DHT22;23372;52.050;4.810;2023-06-22T11:41:09;24.50;99.90
37528;DHT22;23372;52.050;4.810;2023-06-22T11:43:35;24.50;99.90
37528;DHT22;23372;52.050;4.810;2023-06-22T11:46:02;24.50;99.90
37528;DHT22;23372;52.050;4.810;2023-06-22T11:48:28;24.30;99.90
37528;DHT22;23372;52.050;4.810;2023-06-22T11:50:54;24.30;99.90
37528;DHT22;23372;52.050;4.810;2023-06-22T11:53:21;24.30;99.90
37528;DHT22;23372;52.050;4.810;2023-06-22T11:55:47;24.50;99.90
37528;DHT22;23372;52.050;4.810;2023-06-22T11:58:14;24.50;99.90
37528;DHT22;23372;52.050;4.810;2023-06-22T12:00:40;24.20;99.90
37528;DHT22;23372;52.050;4.810;2023-06-22T12:03:07;24.10;99.90
37528;DHT22;23372;52.050;4.810;2023-06-22T12:05:33;24.00;99.90
37528;DHT22;23372;52.050;4.810;2023-06-22T12:07:58;24.10;99.90
37528;DHT22;23372;52.050;4.810;2023-06-22T12:10:25;24.20;99.90
37528;DHT22;23372;52.050;4.810;2023-06-22T12:12:51;23.90;99.90
37528;DHT22;23372;52.050;4.810;2023-06-22T12:15:17;24.00;99.90
37528;DHT22;23372;52.050;4.810;2023-06-22T12:17:43;24.10;99.90
37528;DHT22;23372;52.050;4.810;2023-06-22T12:20:09;24.10;99.90
37528;DHT22;23372;52.050;4.810;2023-06-22T12:22:35;24.00;99.90
37528;DHT22;23372;52.050;4.810;2023-06-22T12:25:01;23.90;99.90
37528;DHT22;23372;52.050;4.810;2023-06-22T12:27:27;23.80;99.90
37528;DHT22;23372;52.050;4.810;2023-06-22T12:29:52;23.60;99.90
37528;DHT22;23372;52.050;4.810;2023-06-22T12:32:18;23.50;99.90
37528;DHT22;23372;52.050;4.810;2023-06-22T12:34:44;23.50;99.90
37528;DHT22;23372;52.050;4.810;2023-06-22T12:37:10;23.70;99.90
37528;DHT22;23372;52.050;4.810;2023-06-22T12:39:36;23.70;99.90
37528;DHT22;23372;52.050;4.810;2023-06-22T12:42:01;23.60;99.90
37528;DHT22;23372;52.050;4.810;2023-06-22T12:44:27;23.50;99.90
37528;DHT22;23372;52.050;4.810;2023-06-22T12:46:53;23.50;99.90
37528;DHT22;23372;52.050;4.810;2023-06-22T12:49:19;23.40;99.90
37528;DHT22;23372;52.050;4.810;2023-06-22T12:51:44;23.50;99.90
37528;DHT22;23372;52.050;4.810;2023-06-22T12:54:10;23.50;99.90
37528;DHT22;23372;52.050;4.810;2023-06-22T12:56:37;23.50;99.90
37528;DHT22;23372;52.050;4.810;2023-06-22T12:59:05;23.40;99.90
37528;DHT22;23372;52.050;4.810;2023-06-22T13:01:32;23.30;99.90
37528;DHT22;23372;52.050;4.810;2023-06-22T13:03:58;23.10;99.90
37528;DHT22;23372;52.050;4.810;2023-06-22T13:06:23;23.10;99.90
37528;DHT22;23372;52.050;4.810;2023-06-22T13:08:49;23.20;99.90
37528;DHT22;23372;52.050;4.810;2023-06-22T13:11:15;23.20;99.90
37528;DHT22;23372;52.050;4.810;2023-06-22T13:13:40;23.10;99.90
37528;DHT22;23372;52.050;4.810;2023-06-22T13:16:07;23.10;99.90
37528;DHT22;23372;52.050;4.810;2023-06-22T13:18:33;22.90;99.90
37528;DHT22;23372;52.050;4.810;2023-06-22T13:21:04;22.80;99.90
37528;DHT22;23372;52.050;4.810;2023-06-22T13:23:30;22.80;99.90
37528;DHT22;23372;52.050;4.810;2023-06-22T13:25:55;22.80;99.90
37528;DHT22;23372;52.050;4.810;2023-06-22T13:28:21;22.70;99.90
37528;DHT22;23372;52.050;4.810;2023-06-22T13:30:48;22.80;99.90
37528;DHT22;23372;52.050;4.810;2023-06-22T13:33:14;22.80;99.90
37528;DHT22;23372;52.050;4.810;2023-06-22T13:35:40;22.70;99.90
37528;DHT22;23372;52.050;4.810;2023-06-22T13:38:08;22.60;99.90
37528;DHT22;23372;52.050;4.810;2023-06-22T13:40:35;22.50;99.90
37528;DHT22;23372;52.050;4.810;2023-06-22T13:43:00;22.50;99.90
37528;DHT22;23372;52.050;4.810;2023-06-22T13:45:26;22.40;99.90
37528;DHT22;23372;52.050;4.810;2023-06-22T13:47:52;22.40;99.90
37528;DHT22;23372;52.050;4.810;2023-06-22T13:50:18;22.20;99.90
37528;DHT22;23372;52.050;4.810;2023-06-22T13:52:43;22.10;99.90
37528;DHT22;23372;52.050;4.810;2023-06-22T13:55:09;22.10;99.90
37528;DHT22;23372;52.050;4.810;2023-06-22T13:57:35;21.80;99.90
37528;DHT22;23372;52.050;4.810;2023-06-22T14:00:03;21.80;99.90
37528;DHT22;23372;52.050;4.810;2023-06-22T14:02:33;21.70;99.90
37528;DHT22;23372;52.050;4.810;2023-06-22T14:04:58;21.70;99.90
37528;DHT22;23372;52.050;4.810;2023-06-22T14:07:24;21.60;99.90
37528;DHT22;23372;52.050;4.810;2023-06-22T14:09:50;21.50;99.90
37528;DHT22;23372;52.050;4.810;2023-06-22T14:12:16;21.50;99.90
37528;DHT22;23372;52.050;4.810;2023-06-22T14:14:43;21.50;99.90
37528;DHT22;23372;52.050;4.810;2023-06-22T14:17:09;21.50;99.90
37528;DHT22;23372;52.050;4.810;2023-06-22T14:19:35;21.50;99.90
37528;DHT22;23372;52.050;4.810;2023-06-22T14:22:01;21.50;99.90
37528;DHT22;23372;52.050;4.810;2023-06-22T14:24:26;21.40;99.90
37528;DHT22;23372;52.050;4.810;2023-06-22T14:26:52;21.30;99.90
37528;DHT22;23372;52.050;4.810;2023-06-22T14:29:17;21.20;99.90
37528;DHT22;23372;52.050;4.810;2023-06-22T14:31:46;21.10;99.90
37528;DHT22;23372;52.050;4.810;2023-06-22T14:34:12;21.20;99.90
37528;DHT22;23372;52.050;4.810;2023-06-22T14:36:38;21.10;99.90
37528;DHT22;23372;52.050;4.810;2023-06-22T14:39:03;21.10;99.90
37528;DHT22;23372;52.050;4.810;2023-06-22T14:41:30;20.90;99.90
37528;DHT22;23372;52.050;4.810;2023-06-22T14:43:56;20.90;99.90
37528;DHT22;23372;52.050;4.810;2023-06-22T14:46:22;20.90;99.90
37528;DHT22;23372;52.050;4.810;2023-06-22T14:48:47;20.90;99.90
37528;DHT22;23372;52.050;4.810;2023-06-22T14:51:14;21.00;99.90
37528;DHT22;23372;52.050;4.810;2023-06-22T14:53:40;21.00;99.90
37528;DHT22;23372;52.050;4.810;2023-06-22T14:56:06;21.00;99.90
37528;DHT22;23372;52.050;4.810;2023-06-22T14:58:32;20.80;99.90
37528;DHT22;23372;52.050;4.810;2023-06-22T15:01:03;20.90;99.90
37528;DHT22;23372;52.050;4.810;2023-06-22T15:03:33;20.70;99.90
37528;DHT22;23372;52.050;4.810;2023-06-22T15:06:01;20.70;99.90
37528;DHT22;23372;52.050;4.810;2023-06-22T15:08:27;20.70;99.90
37528;DHT22;23372;52.050;4.810;2023-06-22T15:10:52;20.80;99.90
37528;DHT22;23372;52.050;4.810;2023-06-22T15:13:18;20.90;99.90
37528;DHT22;23372;52.050;4.810;2023-06-22T15:15:46;20.90;99.90
37528;DHT22;23372;52.050;4.810;2023-06-22T15:18:13;20.90;99.90
37528;DHT22;23372;52.050;4.810;2023-06-22T15:20:38;20.70;99.90
37528;DHT22;23372;52.050;4.810;2023-06-22T15:23:06;20.70;99.90
37528;DHT22;23372;52.050;4.810;2023-06-22T15:25:32;20.80;99.90
37528;DHT22;23372;52.050;4.810;2023-06-22T15:27:57;20.70;99.90
37528;DHT22;23372;52.050;4.810;2023-06-22T15:30:23;20.70;99.90
37528;DHT22;23372;52.050;4.810;2023-06-22T15:32:49;20.70;99.90